Time;durP1;ratioP1;P1;durP2;ratioP2;P2;SDS_P1;SDS_P2;PMS_P1;PMS_P2;Temp;Humidity;BMP_temperature;BMP_pressure;BME280_temperature;BME280_humidity;BME280_pressure;Samples;Min_cycle;Max_cycle;Signal;HPM_P1;HPM_P2
2022/09/27 00:00:19;;;;;;;0.90;0.63;;;16.80;65.70;17.10;94936.00;;;;5052110;28;20254;-83
2022/09/27 00:02:48;;;;;;;0.70;0.70;;;16.80;66.00;17.10;94928.00;;;;5054210;28;20197;-82
2022/09/27 00:05:15;;;;;;;0.60;0.60;;;16.80;66.20;17.10;94921.00;;;;5053695;28;20348;-83
2022/09/27 00:07:44;;;;;;;1.07;0.60;;;16.80;66.40;17.10;94922.00;;;;5052764;28;20263;-82
2022/09/27 00:10:12;;;;;;;0.53;0.53;;;16.80;66.30;17.00;94918.00;;;;5042339;28;20614;-82
2022/09/27 00:12:40;;;;;;;1.47;0.90;;;16.80;66.50;17.00;94914.00;;;;5053213;28;20201;-82
2022/09/27 00:15:10;;;;;;;0.60;0.60;;;16.80;66.30;17.00;94911.00;;;;5037121;28;20204;-83
2022/09/27 00:17:38;;;;;;;1.90;0.90;;;16.80;66.20;17.00;94904.00;;;;5046941;28;20262;-83
2022/09/27 00:20:08;;;;;;;1.37;1.27;;;16.70;66.20;17.00;94895.00;;;;5051812;28;20598;-82
2022/09/27 00:22:36;;;;;;;0.60;0.60;;;16.70;66.50;17.00;94900.00;;;;5047806;28;20201;-82
2022/09/27 00:25:04;;;;;;;0.80;0.80;;;16.70;66.40;17.00;94893.00;;;;5050180;28;20271;-83
2022/09/27 00:27:32;;;;;;;0.63;0.60;;;16.70;66.30;16.90;94888.00;;;;5043373;28;20209;-82
2022/09/27 00:29:59;;;;;;;0.60;0.60;;;16.70;66.20;16.90;94894.00;;;;5052069;28;20200;-83
2022/09/27 00:32:26;;;;;;;0.63;0.63;;;16.70;66.10;16.90;94886.00;;;;5051537;28;20581;-83
2022/09/27 00:34:53;;;;;;;0.60;0.60;;;16.70;66.00;16.90;94886.00;;;;5051290;28;20569;-81
2022/09/27 00:37:22;;;;;;;0.67;0.67;;;16.70;66.00;16.90;94881.00;;;;5048093;28;20601;-82
2022/09/27 00:39:49;;;;;;;0.67;0.67;;;16.70;66.20;16.80;94879.00;;;;5051774;28;20200;-83
2022/09/27 00:42:16;;;;;;;1.20;0.80;;;16.60;66.60;16.90;94876.00;;;;5049139;28;20635;-83
2022/09/27 00:45:04;;;;;;;1.03;0.93;;;16.60;66.90;16.80;94877.00;;;;5047537;28;20861;-82
2022/09/27 00:47:40;;;;;;;0.60;0.60;;;16.60;67.60;16.80;94879.00;;;;5051588;28;20225;-83
2022/09/27 00:50:21;;;;;;;0.97;0.83;;;16.60;67.60;16.80;94873.00;;;;5050247;28;20220;-83
2022/09/27 00:52:59;;;;;;;0.80;0.80;;;16.60;67.70;16.80;94871.00;;;;5053704;28;20216;-83
2022/09/27 00:55:33;;;;;;;1.40;0.73;;;16.60;67.90;16.80;94871.00;;;;5049247;28;20193;-82
2022/09/27 00:58:01;;;;;;;1.40;0.70;;;16.60;68.30;16.80;94859.00;;;;5048233;28;20290;-82
2022/09/27 01:00:28;;;;;;;0.40;0.40;;;16.60;68.40;16.70;94870.00;;;;5049393;28;20726;-81
2022/09/27 01:02:57;;;;;;;0.60;0.60;;;16.60;68.40;16.70;94867.00;;;;5061072;28;20193;-82
2022/09/27 01:05:28;;;;;;;0.60;0.60;;;16.50;68.60;16.60;94858.00;;;;5059853;28;20204;-82
2022/09/27 01:07:59;;;;;;;0.77;0.77;;;16.50;68.90;16.60;94859.00;;;;5062029;28;20187;-82
2022/09/27 01:10:35;;;;;;;0.50;0.50;;;16.50;69.10;16.60;94859.00;;;;5055817;28;20203;-81
2022/09/27 01:13:17;;;;;;;0.90;0.70;;;16.50;69.40;16.60;94859.00;;;;5061694;28;20207;-82
2022/09/27 01:15:57;;;;;;;0.63;0.63;;;16.50;69.30;16.60;94847.00;;;;5046839;28;20197;-82
2022/09/27 01:18:39;;;;;;;0.70;0.70;;;16.40;69.30;16.50;94847.00;;;;5043213;28;20216;-82
2022/09/27 01:21:44;;;;;;;1.13;0.77;;;16.40;69.20;16.50;94850.00;;;;5053932;28;20196;-82
2022/09/27 01:25:01;;;;;;;0.67;0.63;;;16.40;70.00;16.50;94848.00;;;;5043863;28;20201;-81
2022/09/27 01:28:19;;;;;;;1.03;0.70;;;16.40;70.10;16.40;94847.00;;;;5052982;28;20217;-82
2022/09/27 01:30:54;;;;;;;0.63;0.63;;;16.30;69.70;16.40;94847.00;;;;5056892;28;20238;-81
2022/09/27 01:33:45;;;;;;;1.20;0.60;;;16.30;69.60;16.40;94841.00;;;;5050969;28;20813;-82
2022/09/27 01:36:28;;;;;;;1.50;0.60;;;16.30;69.70;16.40;94834.00;;;;5055887;28;20270;-81
2022/09/27 01:39:22;;;;;;;0.60;0.60;;;16.30;69.90;16.40;94827.00;;;;5049902;28;20254;-82
2022/09/27 01:42:02;;;;;;;0.70;0.70;;;16.20;70.20;16.40;94822.00;;;;5055961;28;20197;-81
2022/09/27 01:44:38;;;;;;;1.00;0.90;;;16.20;70.30;16.40;94818.00;;;;5053668;28;20772;-82
2022/09/27 01:47:16;;;;;;;0.60;0.60;;;16.20;70.50;16.40;94820.00;;;;5052110;28;20220;-82
2022/09/27 01:49:53;;;;;;;0.70;0.70;;;16.20;70.90;16.40;94821.00;;;;5056957;28;20577;-82
2022/09/27 01:52:27;;;;;;;0.60;0.60;;;16.20;70.90;16.40;94811.00;;;;5056414;28;20204;-82
2022/09/27 01:55:00;;;;;;;0.87;0.70;;;16.20;70.90;16.40;94807.00;;;;5056438;28;20692;-82
2022/09/27 01:57:36;;;;;;;0.70;0.70;;;16.20;71.00;16.40;94809.00;;;;5054063;28;20235;-82
2022/09/27 02:00:07;;;;;;;1.10;1.00;;;16.10;70.90;16.30;94815.00;;;;5053073;28;20261;-82
2022/09/27 02:02:41;;;;;;;0.77;0.70;;;16.10;71.00;16.30;94809.00;;;;5056570;28;20201;-81
2022/09/27 02:05:16;;;;;;;0.83;0.83;;;16.10;71.10;16.30;94810.00;;;;5051360;28;20252;-81
2022/09/27 02:07:51;;;;;;;0.70;0.60;;;16.10;71.10;16.30;94809.00;;;;5052699;28;20221;-82
2022/09/27 02:10:23;;;;;;;0.63;0.63;;;16.10;71.20;16.30;94815.00;;;;5057451;28;20188;-82
2022/09/27 02:13:00;;;;;;;1.00;0.80;;;16.10;71.10;16.30;94811.00;;;;5045914;28;20222;-81
2022/09/27 02:15:33;;;;;;;0.70;0.70;;;16.10;71.20;16.30;94816.00;;;;5051055;28;20204;-82
2022/09/27 02:18:10;;;;;;;1.90;1.03;;;16.10;71.20;16.30;94812.00;;;;5053719;28;20212;-81
2022/09/27 02:20:44;;;;;;;0.83;0.83;;;16.10;71.30;16.30;94812.00;;;;5048131;28;20269;-82
2022/09/27 02:23:33;;;;;;;0.60;0.60;;;16.10;71.50;16.30;94808.00;;;;5047456;28;20275;-81
2022/09/27 02:26:06;;;;;;;0.80;0.80;;;16.10;72.00;16.30;94816.00;;;;5041950;28;20221;-82
2022/09/27 02:28:40;;;;;;;1.20;1.00;;;16.10;71.60;16.20;94810.00;;;;5054038;28;20209;-82
2022/09/27 02:31:08;;;;;;;1.27;0.90;;;16.10;71.80;16.20;94810.00;;;;5053902;28;20200;-81
2022/09/27 02:33:44;;;;;;;0.90;0.90;;;16.10;71.60;16.20;94804.00;;;;5053885;28;20192;-81
2022/09/27 02:36:12;;;;;;;0.90;0.90;;;16.00;72.50;16.20;94811.00;;;;5053005;28;20287;-82
2022/09/27 02:38:39;;;;;;;0.80;0.80;;;16.00;71.80;16.10;94813.00;;;;5049505;28;20201;-82
2022/09/27 02:41:15;;;;;;;0.90;0.87;;;16.00;72.00;16.10;94807.00;;;;5050433;28;20653;-82
2022/09/27 02:43:47;;;;;;;0.97;0.70;;;16.00;72.60;16.10;94802.00;;;;5069693;28;20209;-81
2022/09/27 02:46:43;;;;;;;0.73;0.73;;;15.90;72.50;16.10;94781.00;;;;5062241;28;20270;-82
2022/09/27 02:49:31;;;;;;;0.80;0.70;;;15.90;73.00;16.10;94788.00;;;;5044978;28;20193;-82
2022/09/27 02:52:12;;;;;;;0.90;0.80;;;15.90;73.10;16.00;94774.00;;;;5047088;28;20209;-82
2022/09/27 02:54:54;;;;;;;0.50;0.50;;;15.90;72.70;16.00;94768.00;;;;5050670;28;20201;-82
2022/09/27 02:57:38;;;;;;;0.70;0.70;;;15.90;73.10;15.90;94767.00;;;;5045597;28;20221;-82
2022/09/27 03:00:11;;;;;;;0.90;0.63;;;15.80;73.20;15.90;94768.00;;;;5044931;28;20242;-82
2022/09/27 03:02:52;;;;;;;0.80;0.63;;;15.80;73.20;15.90;94769.00;;;;5049825;28;20197;-83
2022/09/27 03:05:25;;;;;;;0.73;0.60;;;15.80;73.70;15.80;94758.00;;;;5058960;28;20223;-82
2022/09/27 03:07:52;;;;;;;1.13;0.70;;;15.70;73.70;15.80;94766.00;;;;5048546;28;20224;-82
2022/09/27 03:10:23;;;;;;;0.50;0.50;;;15.70;73.80;15.80;94763.00;;;;5047612;28;20201;-82
2022/09/27 03:12:52;;;;;;;1.70;0.63;;;15.70;74.10;15.80;94774.00;;;;5044746;28;20267;-81
2022/09/27 03:15:19;;;;;;;0.77;0.77;;;15.60;74.20;15.80;94766.00;;;;5034236;28;20601;-82
2022/09/27 03:17:46;;;;;;;0.50;0.50;;;15.60;74.30;15.80;94765.00;;;;5045016;28;20224;-82
2022/09/27 03:20:14;;;;;;;0.70;0.60;;;15.60;74.40;15.70;94766.00;;;;5048081;28;20247;-82
2022/09/27 03:22:42;;;;;;;1.17;0.60;;;15.60;74.40;15.70;94753.00;;;;5051726;28;20233;-82
2022/09/27 03:25:10;;;;;;;0.60;0.60;;;15.60;74.70;15.70;94752.00;;;;5051013;28;20681;-82
2022/09/27 03:27:37;;;;;;;0.67;0.67;;;15.60;74.80;15.70;94748.00;;;;5047710;28;20245;-82
2022/09/27 03:30:06;;;;;;;0.50;0.50;;;15.50;74.80;15.60;94743.00;;;;5049961;28;20682;-82
2022/09/27 03:32:33;;;;;;;0.67;0.67;;;15.50;74.90;15.60;94753.00;;;;5050790;28;20292;-82
2022/09/27 03:35:00;;;;;;;0.50;0.50;;;15.50;75.10;15.60;94745.00;;;;5050038;28;20200;-83
2022/09/27 03:37:28;;;;;;;0.43;0.43;;;15.50;75.00;15.50;94745.00;;;;5046258;28;20631;-82
2022/09/27 03:39:57;;;;;;;0.73;0.57;;;15.50;75.00;15.50;94738.00;;;;5050659;28;20201;-82
2022/09/27 03:42:24;;;;;;;0.50;0.50;;;15.40;75.20;15.50;94740.00;;;;5044443;28;20201;-82
2022/09/27 03:44:51;;;;;;;0.40;0.40;;;15.40;75.40;15.50;94738.00;;;;5037758;28;20247;-82
2022/09/27 03:47:18;;;;;;;0.80;0.80;;;15.40;75.30;15.50;94735.00;;;;5034799;28;20262;-83
2022/09/27 03:49:45;;;;;;;0.80;0.50;;;15.40;75.50;15.50;94741.00;;;;5050550;28;20330;-82
2022/09/27 03:52:13;;;;;;;0.63;0.60;;;15.40;75.80;15.50;94738.00;;;;5049262;28;20196;-82
2022/09/27 03:54:40;;;;;;;0.47;0.40;;;15.40;76.00;15.50;94723.00;;;;5050705;28;20221;-81
2022/09/27 03:57:09;;;;;;;0.70;0.70;;;15.40;76.20;15.50;94720.00;;;;5049644;28;20224;-82
2022/09/27 03:59:36;;;;;;;0.80;0.80;;;15.40;76.10;15.50;94722.00;;;;5037834;28;20261;-82
2022/09/27 04:02:03;;;;;;;0.87;0.87;;;15.40;76.00;15.50;94719.00;;;;5041068;28;20250;-83
2022/09/27 04:04:31;;;;;;;0.97;0.97;;;15.40;76.30;15.50;94713.00;;;;5052445;28;20707;-83
2022/09/27 04:06:58;;;;;;;2.03;0.80;;;15.40;76.50;15.50;94709.00;;;;5053049;28;20220;-82
2022/09/27 04:09:26;;;;;;;1.40;1.03;;;15.40;76.50;15.50;94709.00;;;;5054442;28;20630;-83
2022/09/27 04:11:53;;;;;;;1.33;0.90;;;15.40;76.50;15.50;94705.00;;;;5050262;28;20227;-82
2022/09/27 04:14:22;;;;;;;2.93;1.10;;;15.40;76.50;15.50;94711.00;;;;5058427;28;20197;-83
2022/09/27 04:19:19;;;;;;;0.80;0.80;;;15.40;76.80;15.50;94710.00;;;;5053860;28;20213;-85
2022/09/27 04:21:46;;;;;;;0.67;0.67;;;15.40;76.70;15.50;94710.00;;;;5055692;28;20254;-84
2022/09/27 04:24:13;;;;;;;1.30;1.03;;;15.40;76.50;15.50;94708.00;;;;5054686;28;20196;-85
2022/09/27 04:26:40;;;;;;;0.90;0.90;;;15.40;76.80;15.60;94713.00;;;;5054189;28;20196;-85
2022/09/27 04:29:09;;;;;;;1.00;0.90;;;15.40;76.60;15.60;94715.00;;;;5054470;28;20701;-85
2022/09/27 04:31:37;;;;;;;1.10;1.00;;;15.40;76.40;15.50;94708.00;;;;5053611;28;20197;-86
2022/09/27 04:34:05;;;;;;;0.80;0.80;;;15.40;77.20;15.60;94714.00;;;;5051495;28;20254;-84
2022/09/27 04:36:32;;;;;;;0.80;0.80;;;15.40;76.60;15.60;94706.00;;;;5053603;28;20192;-85
2022/09/27 04:39:03;;;;;;;0.73;0.73;;;15.40;76.60;15.60;94700.00;;;;5053814;28;20225;-84
2022/09/27 04:41:31;;;;;;;0.67;0.53;;;15.40;76.60;15.60;94715.00;;;;5054615;28;20185;-84
2022/09/27 04:44:00;;;;;;;0.70;0.70;;;15.40;76.40;15.60;94712.00;;;;5057855;28;20246;-85
2022/09/27 04:46:30;;;;;;;0.50;0.50;;;15.40;76.50;15.60;94715.00;;;;5053071;28;20201;-85
2022/09/27 04:48:59;;;;;;;1.00;0.90;;;15.40;77.20;15.60;94716.00;;;;5044876;28;20266;-84
2022/09/27 04:51:27;;;;;;;1.03;0.90;;;15.40;76.40;15.60;94708.00;;;;5033729;28;20223;-84
2022/09/27 04:53:56;;;;;;;0.67;0.53;;;15.40;76.40;15.60;94710.00;;;;5033203;28;20205;-85
2022/09/27 04:56:24;;;;;;;0.80;0.80;;;15.40;76.10;15.60;94716.00;;;;5033120;28;20230;-85
2022/09/27 04:58:51;;;;;;;0.80;0.80;;;15.40;76.10;15.60;94716.00;;;;5042027;28;20227;-84
2022/09/27 05:01:18;;;;;;;0.60;0.60;;;15.40;76.10;15.60;94717.00;;;;5053551;28;20197;-84
2022/09/27 05:03:45;;;;;;;0.70;0.70;;;15.40;76.10;15.60;94725.00;;;;5052565;28;20282;-85
2022/09/27 05:06:14;;;;;;;0.87;0.67;;;15.40;76.00;15.60;94724.00;;;;5053676;28;20232;-84
2022/09/27 05:08:41;;;;;;;0.50;0.50;;;15.40;76.00;15.60;94727.00;;;;5052942;28;20252;-85
2022/09/27 05:11:08;;;;;;;0.60;0.60;;;15.40;76.10;15.60;94724.00;;;;5051992;28;20189;-85
2022/09/27 05:13:36;;;;;;;0.47;0.40;;;15.40;76.10;15.60;94734.00;;;;5052649;28;20254;-85
2022/09/27 05:16:06;;;;;;;0.40;0.40;;;15.40;75.90;15.60;94734.00;;;;5048245;28;20239;-84
2022/09/27 05:18:33;;;;;;;0.60;0.60;;;15.40;75.80;15.60;94735.00;;;;5033775;28;20633;-86
2022/09/27 05:21:01;;;;;;;0.40;0.40;;;15.40;75.80;15.60;94733.00;;;;5040476;28;20197;-84
2022/09/27 05:23:29;;;;;;;0.60;0.43;;;15.50;75.90;15.60;94733.00;;;;5052879;28;20724;-84
2022/09/27 05:25:56;;;;;;;0.27;0.27;;;15.40;75.50;15.60;94733.00;;;;5052105;28;20634;-86
2022/09/27 05:28:24;;;;;;;0.80;0.60;;;15.40;75.60;15.60;94727.00;;;;5052902;28;20632;-86
2022/09/27 05:30:51;;;;;;;0.30;0.30;;;15.40;75.60;15.60;94737.00;;;;5050667;28;20250;-86
2022/09/27 05:33:18;;;;;;;0.83;0.30;;;15.40;75.70;15.60;94735.00;;;;5061591;28;20232;-87
2022/09/27 05:35:53;;;;;;;0.40;0.40;;;15.40;75.60;15.60;94749.00;;;;5061368;28;20285;-85
2022/09/27 05:38:24;;;;;;;0.40;0.40;;;15.40;75.60;15.60;94749.00;;;;5058428;28;20223;-86
2022/09/27 05:40:52;;;;;;;0.40;0.40;;;15.40;75.50;15.60;94747.00;;;;5054848;28;20196;-86
2022/09/27 05:43:20;;;;;;;0.30;0.30;;;15.50;75.50;15.60;94742.00;;;;5052313;28;20720;-87
2022/09/27 05:45:47;;;;;;;0.87;0.43;;;15.40;75.20;15.60;94751.00;;;;5052798;28;20201;-86
2022/09/27 05:48:15;;;;;;;0.43;0.43;;;15.40;75.10;15.60;94757.00;;;;5053099;28;20270;-87
2022/09/27 05:50:42;;;;;;;0.23;0.23;;;15.40;75.20;15.60;94755.00;;;;5053277;28;20563;-86
2022/09/27 05:53:10;;;;;;;0.83;0.30;;;15.40;75.10;15.60;94751.00;;;;5052853;28;20212;-87
2022/09/27 05:55:37;;;;;;;0.30;0.30;;;15.40;75.20;15.70;94756.00;;;;5052616;28;20279;-87
2022/09/27 05:58:08;;;;;;;0.63;0.50;;;15.50;75.30;15.60;94766.00;;;;5052708;28;20229;-87
2022/09/27 06:00:38;;;;;;;0.57;0.30;;;15.40;75.10;15.60;94762.00;;;;5044283;28;20324;-86
2022/09/27 06:03:07;;;;;;;0.40;0.20;;;15.40;74.90;15.60;94773.00;;;;5034948;28;20198;-86
2022/09/27 06:05:37;;;;;;;0.43;0.20;;;15.50;75.00;15.70;94756.00;;;;5033226;28;20205;-87
2022/09/27 06:08:08;;;;;;;0.40;0.40;;;15.50;75.10;15.70;94762.00;;;;5056638;28;20269;-87
2022/09/27 06:10:38;;;;;;;0.30;0.30;;;15.50;74.90;15.70;94775.00;;;;5058530;28;20204;-88
2022/09/27 06:13:10;;;;;;;0.20;0.20;;;15.50;74.90;15.70;94776.00;;;;5052569;28;20185;-87
2022/09/27 06:15:41;;;;;;;0.47;0.23;;;15.50;74.80;15.70;94789.00;;;;5053118;28;20177;-87
2022/09/27 06:18:11;;;;;;;0.40;0.40;;;15.50;74.60;15.70;94793.00;;;;5047528;28;20751;-87
2022/09/27 06:20:41;;;;;;;0.33;0.20;;;15.50;74.40;15.70;94795.00;;;;5049205;28;20212;-87
2022/09/27 06:23:11;;;;;;;0.20;0.20;;;15.50;74.30;15.70;94795.00;;;;5036180;28;20197;-88
2022/09/27 06:25:40;;;;;;;0.47;0.20;;;15.50;74.30;15.70;94809.00;;;;5050265;28;20283;-87
2022/09/27 06:28:09;;;;;;;0.40;0.40;;;15.50;74.40;15.80;94806.00;;;;5052519;28;20259;-87
2022/09/27 06:30:40;;;;;;;0.27;0.23;;;15.60;74.40;15.80;94808.00;;;;5052007;28;20239;-86
2022/09/27 06:33:12;;;;;;;0.30;0.30;;;15.60;74.60;15.80;94814.00;;;;5051787;28;20605;-88
2022/09/27 06:35:40;;;;;;;0.53;0.30;;;15.60;74.40;15.80;94810.00;;;;5035797;28;20262;-87
2022/09/27 06:38:11;;;;;;;0.50;0.50;;;15.60;74.40;15.90;94807.00;;;;5050960;28;20217;-86
2022/09/27 06:40:38;;;;;;;0.30;0.30;;;15.60;74.60;15.90;94808.00;;;;5047784;28;20200;-87
2022/09/27 06:43:09;;;;;;;0.23;0.23;;;15.60;74.60;15.90;94811.00;;;;5055493;28;20199;-88
2022/09/27 06:45:38;;;;;;;0.20;0.20;;;15.60;74.50;15.90;94809.00;;;;5048199;28;20578;-87
2022/09/27 06:48:08;;;;;;;0.80;0.40;;;15.60;74.50;15.90;94816.00;;;;5053724;28;20247;-88
2022/09/27 06:50:37;;;;;;;0.73;0.53;;;15.70;74.70;15.90;94824.00;;;;5033083;28;20197;-87
2022/09/27 06:53:08;;;;;;;0.20;0.20;;;15.70;74.80;16.00;94828.00;;;;5045121;28;20266;-89
2022/09/27 06:55:35;;;;;;;0.30;0.30;;;15.70;74.90;16.00;94834.00;;;;5051310;28;20196;-87
2022/09/27 07:00:55;;;;;;;0.30;0.30;;;15.70;74.50;16.00;94841.00;;;;5012234;28;20313;-87
2022/09/27 07:03:25;;;;;;;3.40;0.50;;;15.80;74.30;16.00;94837.00;;;;5049734;28;20228;-87
2022/09/27 07:05:57;;;;;;;0.40;0.40;;;15.80;74.00;16.00;94829.00;;;;5044880;28;20200;-87
2022/09/27 07:08:27;;;;;;;2.50;0.37;;;15.80;73.70;16.00;94840.00;;;;5048663;28;20221;-88
2022/09/27 07:10:56;;;;;;;0.30;0.30;;;15.80;73.60;16.00;94838.00;;;;5046424;28;20204;-87
2022/09/27 07:13:25;;;;;;;0.30;0.30;;;15.80;73.40;15.90;94844.00;;;;5051946;28;20196;-87
2022/09/27 07:15:54;;;;;;;0.40;0.40;;;15.70;73.30;15.90;94858.00;;;;5051325;28;20599;-87
2022/09/27 07:18:21;;;;;;;3.47;0.80;;;15.80;73.30;16.00;94852.00;;;;5049831;28;20274;-87
2022/09/27 07:20:49;;;;;;;0.63;0.43;;;15.70;73.40;16.00;94869.00;;;;5067337;28;20216;-88
2022/09/27 07:23:17;;;;;;;0.83;0.30;;;15.80;73.40;16.00;94868.00;;;;5042112;28;20284;-88
2022/09/27 07:25:44;;;;;;;0.73;0.40;;;15.80;73.20;16.00;94877.00;;;;5041365;28;20194;-87
2022/09/27 07:28:16;;;;;;;0.67;0.30;;;15.80;73.00;16.00;94873.00;;;;5050040;28;20270;-86
2022/09/27 07:30:43;;;;;;;0.60;0.57;;;15.80;72.80;16.10;94872.00;;;;5062334;28;20199;-86
2022/09/27 07:33:13;;;;;;;1.50;0.60;;;15.80;72.60;16.10;94879.00;;;;5070521;28;20192;-86
2022/09/27 07:35:42;;;;;;;0.30;0.30;;;15.80;72.30;16.10;94883.00;;;;5071098;28;20188;-86
2022/09/27 07:38:12;;;;;;;0.77;0.30;;;15.90;72.30;16.10;94896.00;;;;5055505;28;20243;-87
2022/09/27 07:40:41;;;;;;;0.40;0.30;;;15.90;71.90;16.10;94891.00;;;;5054168;28;20200;-87
2022/09/27 07:43:09;;;;;;;0.23;0.20;;;15.90;71.70;16.20;94888.00;;;;5035672;28;20662;-87
2022/09/27 07:45:37;;;;;;;0.47;0.30;;;15.90;71.50;16.30;94881.00;;;;5049379;28;20334;-87
2022/09/27 07:48:06;;;;;;;1.00;0.30;;;16.00;71.30;16.40;94886.00;;;;5055355;28;20217;-86
2022/09/27 07:50:34;;;;;;;0.30;0.30;;;16.00;71.40;16.40;94873.00;;;;5055624;28;20215;-87
2022/09/27 07:53:03;;;;;;;0.80;0.40;;;16.10;71.50;16.50;94878.00;;;;5055627;28;20193;-87
2022/09/27 07:55:31;;;;;;;0.87;0.30;;;16.10;71.40;16.60;94874.00;;;;5054794;28;20192;-87
2022/09/27 07:58:05;;;;;;;0.40;0.30;;;16.20;71.00;16.70;94880.00;;;;5054882;28;20642;-87
2022/09/27 08:00:32;;;;;;;0.77;0.30;;;16.30;70.60;16.70;94883.00;;;;5055228;28;20250;-87
2022/09/27 08:03:04;;;;;;;1.30;0.60;;;16.30;70.40;16.70;94871.00;;;;5055537;28;20611;-87
2022/09/27 08:05:32;;;;;;;1.50;0.53;;;16.40;70.20;16.70;94883.00;;;;5055379;28;20177;-87
2022/09/27 08:08:01;;;;;;;1.07;0.50;;;16.40;70.00;16.70;94889.00;;;;5055746;28;20282;-86
2022/09/27 08:10:30;;;;;;;0.47;0.30;;;16.40;69.70;16.70;94891.00;;;;5055347;28;20201;-88
2022/09/27 08:12:58;;;;;;;0.50;0.50;;;16.40;69.70;16.70;94887.00;;;;5055307;28;20280;-86
2022/09/27 08:15:27;;;;;;;0.30;0.17;;;16.40;70.00;16.70;94898.00;;;;5051015;28;20256;-87
2022/09/27 08:17:55;;;;;;;1.70;0.40;;;16.40;70.00;16.70;94904.00;;;;5035182;28;20552;-88
2022/09/27 08:20:22;;;;;;;0.47;0.30;;;16.40;70.00;16.70;94916.00;;;;5035630;28;20201;-87
2022/09/27 08:22:49;;;;;;;0.27;0.27;;;16.40;70.10;16.70;94916.00;;;;5035413;28;20275;-87
2022/09/27 08:25:18;;;;;;;0.57;0.30;;;16.40;70.20;16.70;94920.00;;;;5042888;28;20193;-87
2022/09/27 08:27:56;;;;;;;0.50;0.37;;;16.40;70.00;16.70;94928.00;;;;5054913;28;20217;-86
2022/09/27 08:30:24;;;;;;;0.40;0.30;;;16.50;69.80;16.70;94921.00;;;;5055163;28;20283;-87
2022/09/27 08:32:56;;;;;;;0.83;0.37;;;16.40;69.70;16.70;94925.00;;;;5054877;28;20205;-86
2022/09/27 08:35:23;;;;;;;0.70;0.40;;;16.40;69.80;16.70;94938.00;;;;5054696;28;20657;-87
2022/09/27 08:37:55;;;;;;;0.90;0.47;;;16.40;70.00;16.60;94934.00;;;;5054313;28;20220;-88
2022/09/27 08:40:29;;;;;;;0.87;0.30;;;16.40;69.80;16.60;94940.00;;;;5054927;28;20192;-86
2022/09/27 08:43:11;;;;;;;0.50;0.40;;;16.40;69.60;16.60;94956.00;;;;5058793;28;20245;-87
2022/09/27 08:45:53;;;;;;;0.43;0.30;;;16.40;69.50;16.60;94953.00;;;;5056071;28;20262;-86
2022/09/27 08:48:22;;;;;;;0.30;0.27;;;16.40;69.80;16.60;94953.00;;;;5054177;28;20228;-87
2022/09/27 08:50:50;;;;;;;0.53;0.30;;;16.40;69.80;16.60;94958.00;;;;5054341;28;20205;-86
2022/09/27 08:53:26;;;;;;;0.30;0.30;;;16.40;69.40;16.60;94958.00;;;;5054448;28;20654;-88
2022/09/27 08:55:57;;;;;;;0.40;0.37;;;16.40;69.40;16.70;94959.00;;;;5054561;28;20627;-88
2022/09/27 08:58:28;;;;;;;0.93;0.30;;;16.40;69.60;16.70;94964.00;;;;5053729;28;20274;-85
2022/09/27 09:01:02;;;;;;;0.57;0.50;;;16.40;69.40;16.70;94960.00;;;;5054121;28;20181;-87
2022/09/27 09:03:33;;;;;;;0.60;0.50;;;16.40;70.00;16.80;94956.00;;;;5054315;28;20224;-86
2022/09/27 09:06:14;;;;;;;1.00;0.50;;;16.40;69.20;16.80;94953.00;;;;5054260;28;20184;-86
2022/09/27 09:08:55;;;;;;;0.40;0.40;;;16.50;69.30;16.90;94965.00;;;;5054270;28;20286;-86
2022/09/27 09:14:53;;;;;;;0.40;0.20;;;16.60;68.90;17.00;94950.00;;;;5053989;28;20281;-86
2022/09/27 09:17:51;;;;;;;0.57;0.57;;;16.60;68.70;17.10;94954.00;;;;5054039;28;20221;-87
2022/09/27 09:20:34;;;;;;;0.30;0.30;;;16.70;68.90;17.10;94952.00;;;;5053799;28;20286;-86
2022/09/27 09:23:25;;;;;;;0.60;0.30;;;16.70;68.40;17.10;94952.00;;;;5054135;28;20620;-86
2022/09/27 09:26:04;;;;;;;0.60;0.30;;;16.80;68.50;17.10;94962.00;;;;5053742;28;20719;-86
2022/09/27 09:28:54;;;;;;;0.43;0.30;;;16.80;68.60;17.20;94962.00;;;;5053893;28;20258;-86
2022/09/27 09:31:34;;;;;;;0.50;0.40;;;16.80;67.90;17.20;94962.00;;;;5053725;28;20577;-86
2022/09/27 09:34:14;;;;;;;1.07;0.30;;;16.80;67.20;17.20;94960.00;;;;5053708;28;20204;-85
2022/09/27 09:36:47;;;;;;;0.73;0.30;;;16.80;67.20;17.20;94961.00;;;;5044003;28;20197;-85
2022/09/27 09:39:22;;;;;;;0.30;0.30;;;16.90;66.90;17.30;94963.00;;;;5033626;28;20733;-86
2022/09/27 09:42:06;;;;;;;1.10;0.30;;;16.90;67.30;17.30;94962.00;;;;5033458;28;20181;-86
2022/09/27 09:44:53;;;;;;;0.97;0.40;;;16.90;66.20;17.30;94952.00;;;;5039098;28;20262;-87
2022/09/27 09:47:35;;;;;;;0.17;0.10;;;17.00;65.80;17.30;94969.00;;;;5053662;28;20217;-86
2022/09/27 09:50:13;;;;;;;0.23;0.20;;;17.00;65.90;17.30;94959.00;;;;5053159;28;20208;-85
2022/09/27 09:52:48;;;;;;;0.03;0.03;;;17.00;65.30;17.30;94961.00;;;;5053178;28;20239;-87
2022/09/27 09:55:21;;;;;;;0.10;0.10;;;17.00;65.10;17.30;94960.00;;;;5053395;28;20204;-86
2022/09/27 09:58:05;;;;;;;0.20;0.10;;;17.00;65.10;17.30;94973.00;;;;5053496;28;20228;-87
2022/09/27 10:00:33;;;;;;;0.37;0.37;;;17.00;65.20;17.30;94975.00;;;;5051904;28;20290;-86
2022/09/27 10:03:03;;;;;;;0.90;0.57;;;16.90;65.10;17.30;94987.00;;;;5053187;28;20200;-86
2022/09/27 10:05:30;;;;;;;0.37;0.30;;;17.00;65.10;17.30;94976.00;;;;5052649;28;20220;-87
2022/09/27 10:08:02;;;;;;;0.40;0.10;;;17.00;64.90;17.30;94983.00;;;;5053766;28;20276;-86
2022/09/27 10:10:29;;;;;;;0.50;0.30;;;17.00;64.60;17.30;94972.00;;;;5072982;28;20250;-87
2022/09/27 10:12:57;;;;;;;0.37;0.10;;;17.00;64.80;17.40;94989.00;;;;5071466;28;20208;-86
2022/09/27 10:15:29;;;;;;;0.20;0.20;;;17.00;65.10;17.40;94986.00;;;;5045416;28;20208;-86
2022/09/27 10:18:00;;;;;;;0.10;0.10;;;17.00;64.60;17.50;94987.00;;;;5071915;22;20224;-84
2022/09/27 10:20:35;;;;;;;0.60;0.33;;;17.10;64.60;17.50;94988.00;;;;5069749;28;20220;-85
2022/09/27 10:23:13;;;;;;;0.70;0.40;;;17.10;64.60;17.60;95000.00;;;;5052112;28;20423;-85
2022/09/27 10:25:56;;;;;;;0.83;0.60;;;17.20;64.30;17.60;94990.00;;;;5050759;28;20215;-85
2022/09/27 10:28:32;;;;;;;0.33;0.33;;;17.20;63.90;17.70;94986.00;;;;5035849;28;20197;-85
2022/09/27 10:31:04;;;;;;;1.13;0.50;;;17.30;64.10;17.70;94996.00;;;;5031920;28;20252;-85
2022/09/27 10:33:35;;;;;;;0.60;0.40;;;17.30;64.00;17.70;94994.00;;;;5032229;28;20186;-85
2022/09/27 10:36:03;;;;;;;0.50;0.30;;;17.30;63.80;17.70;95002.00;;;;5032124;28;20642;-85
2022/09/27 10:38:33;;;;;;;0.20;0.20;;;17.30;63.60;17.70;95000.00;;;;5039530;28;20839;-85
2022/09/27 10:41:23;;;;;;;0.20;0.20;;;17.40;63.40;17.70;95005.00;;;;5051553;28;20823;-85
2022/09/27 10:43:50;;;;;;;0.43;0.17;;;17.40;62.90;17.70;94999.00;;;;5052260;28;20196;-85
2022/09/27 10:46:28;;;;;;;0.20;0.20;;;17.40;63.20;17.70;95004.00;;;;5052132;28;20211;-85
2022/09/27 10:49:22;;;;;;;0.30;0.10;;;17.40;62.60;17.70;95015.00;;;;5051789;28;20204;-84
2022/09/27 10:51:54;;;;;;;0.20;0.17;;;17.40;62.10;17.70;95005.00;;;;5049771;28;20224;-85
2022/09/27 10:54:26;;;;;;;0.10;0.10;;;17.40;62.70;17.60;95009.00;;;;5031786;28;20178;-84
2022/09/27 10:57:03;;;;;;;0.10;0.03;;;17.30;62.50;17.70;95008.00;;;;5031708;28;20227;-84
2022/09/27 10:59:35;;;;;;;0.40;0.20;;;17.40;63.20;17.70;95008.00;;;;5032227;28;20205;-83
2022/09/27 11:02:04;;;;;;;0.10;0.10;;;17.30;62.50;17.70;95013.00;;;;5032037;28;20283;-84
2022/09/27 11:04:35;;;;;;;0.17;0.17;;;17.40;62.70;17.70;95015.00;;;;5057723;22;20252;-84
2022/09/27 11:07:15;;;;;;;0.37;0.10;;;17.40;63.40;17.80;95019.00;;;;5051842;28;20197;-83
2022/09/27 11:09:53;;;;;;;0.10;0.10;;;17.40;62.60;17.80;95015.00;;;;5032017;28;20201;-83
2022/09/27 11:12:24;;;;;;;0.20;0.20;;;17.40;62.20;17.80;95013.00;;;;5034272;28;20193;-83
2022/09/27 11:14:58;;;;;;;0.10;0.10;;;17.50;62.10;17.80;95005.00;;;;5030230;28;20197;-84
2022/09/27 11:17:34;;;;;;;0.60;0.20;;;17.50;61.80;17.80;95003.00;;;;5036094;28;20250;-83
2022/09/27 11:20:31;;;;;;;0.20;0.20;;;17.50;62.10;17.80;95007.00;;;;5036352;28;20327;-84
2022/09/27 11:23:28;;;;;;;0.30;0.30;;;17.50;61.90;17.80;94985.00;;;;5020266;28;20650;-84
2022/09/27 11:26:22;;;;;;;0.30;0.30;;;17.50;61.70;17.90;94998.00;;;;5015856;28;20231;-84